createdAt,value
2022-12-18T00:01:41.456Z,38.70
2022-12-18T00:04:19.522Z,32.20
2022-12-18T00:06:57.351Z,31.40
2022-12-18T00:09:39.457Z,31.30
2022-12-18T00:14:44.411Z,43.00
2022-12-18T00:17:15.716Z,30.30
2022-12-18T00:19:55.713Z,33.50
2022-12-18T00:22:25.267Z,41.10
2022-12-18T00:24:55.552Z,33.20
2022-12-18T00:27:25.726Z,31.90
2022-12-18T00:29:53.611Z,31.40
2022-12-18T00:32:22.220Z,40.20
2022-12-18T00:34:50.274Z,30.00
2022-12-18T00:37:20.197Z,36.70
2022-12-18T00:39:52.612Z,37.10
2022-12-18T00:42:40.136Z,33.00
2022-12-18T00:45:12.716Z,34.80
2022-12-18T00:47:42.505Z,30.50
2022-12-18T00:50:11.811Z,35.00
2022-12-18T00:52:40.156Z,40.00
2022-12-18T00:55:09.361Z,34.10
2022-12-18T00:57:37.169Z,27.90
2022-12-18T01:00:08.797Z,26.00
2022-12-18T01:02:37.304Z,21.20
2022-12-18T01:05:18.534Z,31.20
2022-12-18T01:07:46.511Z,32.30
2022-12-18T01:10:14.535Z,35.90
2022-12-18T01:12:44.021Z,26.50
2022-12-18T01:15:16.875Z,32.90
2022-12-18T01:17:44.585Z,32.80
2022-12-18T01:20:14.131Z,33.50
2022-12-18T01:22:42.840Z,27.70
2022-12-18T01:25:15.421Z,25.60
2022-12-18T01:27:45.863Z,27.30
2022-12-18T01:30:17.230Z,33.60
2022-12-18T01:32:44.976Z,28.70
2022-12-18T01:35:14.294Z,29.20
2022-12-18T01:37:43.584Z,37.10
2022-12-18T01:40:15.381Z,27.20
2022-12-18T01:42:43.794Z,27.30
2022-12-18T01:45:28.667Z,30.70
2022-12-18T01:47:58.975Z,34.30
2022-12-18T01:50:43.281Z,34.00
2022-12-18T01:53:15.018Z,25.20
2022-12-18T01:55:49.409Z,32.40
2022-12-18T01:58:18.618Z,22.60
2022-12-18T02:00:46.716Z,33.50
2022-12-18T02:03:15.980Z,27.80
2022-12-18T02:05:49.800Z,22.60
2022-12-18T02:08:22.537Z,24.40
2022-12-18T02:11:04.145Z,35.20
2022-12-18T02:13:43.239Z,32.20
2022-12-18T02:16:26.214Z,24.10
2022-12-18T02:18:59.917Z,22.20
2022-12-18T02:21:37.455Z,21.90
2022-12-18T02:24:19.392Z,36.00
2022-12-18T02:26:57.613Z,22.40
2022-12-18T02:29:31.503Z,25.50
2022-12-18T02:32:05.804Z,17.80
2022-12-18T02:34:37.690Z,25.40
2022-12-18T02:37:09.808Z,29.10
2022-12-18T02:39:42.709Z,33.80
2022-12-18T02:42:14.857Z,21.00
2022-12-18T02:44:48.562Z,26.40
2022-12-18T02:47:27.282Z,26.00
2022-12-18T02:50:05.600Z,29.70
2022-12-18T02:52:40.532Z,26.70
2022-12-18T02:55:19.472Z,26.90
2022-12-18T02:57:55.853Z,24.90
2022-12-18T03:00:34.053Z,27.40
2022-12-18T03:03:10.744Z,26.20
2022-12-18T03:05:46.741Z,26.40
2022-12-18T03:08:21.104Z,21.10
2022-12-18T03:10:56.421Z,30.50
2022-12-18T03:13:36.896Z,33.80
2022-12-18T03:16:10.122Z,30.60
2022-12-18T03:18:44.198Z,32.50
2022-12-18T03:21:15.185Z,25.80
2022-12-18T03:23:49.395Z,17.30
2022-12-18T03:26:28.245Z,25.20
2022-12-18T03:29:12.310Z,32.10
2022-12-18T03:31:43.732Z,25.20
2022-12-18T03:34:18.448Z,29.90
2022-12-18T03:36:49.691Z,28.20
2022-12-18T03:39:17.815Z,32.50
2022-12-18T03:41:57.268Z,28.70
2022-12-18T03:44:43.325Z,24.40
2022-12-18T03:47:20.150Z,34.60
2022-12-18T03:49:59.213Z,26.20
2022-12-18T03:52:57.431Z,25.20
2022-12-18T03:55:29.558Z,26.80
2022-12-18T03:58:07.206Z,22.60
2022-12-18T04:00:48.851Z,28.10
2022-12-18T04:03:22.660Z,22.50
2022-12-18T04:06:03.908Z,21.30
2022-12-18T04:08:43.712Z,24.40
2022-12-18T04:11:15.696Z,28.40
2022-12-18T04:13:45.089Z,26.60
2022-12-18T04:16:19.458Z,25.00
2022-12-18T04:18:47.991Z,19.00
2022-12-18T04:21:15.936Z,24.70
2022-12-18T04:23:43.815Z,26.00
2022-12-18T04:26:12.569Z,31.90
2022-12-18T04:28:54.465Z,22.10
2022-12-18T04:31:26.341Z,25.60
2022-12-18T04:33:54.112Z,30.50
2022-12-18T04:36:23.925Z,27.30
2022-12-18T04:38:51.531Z,25.40
2022-12-18T04:41:22.145Z,26.00
2022-12-18T04:43:51.389Z,17.80
2022-12-18T04:46:20.832Z,21.10
2022-12-18T04:48:51.363Z,25.80
2022-12-18T04:51:24.644Z,26.60
2022-12-18T04:53:58.258Z,25.50
2022-12-18T04:56:26.286Z,20.40
2022-12-18T04:58:54.300Z,27.40
2022-12-18T05:01:22.521Z,24.80
2022-12-18T05:03:52.970Z,23.50
2022-12-18T05:06:21.376Z,23.00
2022-12-18T05:09:01.408Z,20.20
2022-12-18T05:11:31.123Z,23.70
2022-12-18T05:13:58.770Z,23.70
2022-12-18T05:16:31.775Z,31.10
2022-12-18T05:19:24.740Z,22.30
2022-12-18T05:21:53.204Z,19.50
2022-12-18T05:24:22.712Z,32.60
2022-12-18T05:26:53.138Z,31.20
2022-12-18T05:29:21.369Z,23.10
2022-12-18T05:31:49.985Z,21.10
2022-12-18T05:34:22.588Z,23.40
2022-12-18T05:36:52.607Z,16.40
2022-12-18T05:39:40.739Z,24.00
2022-12-18T05:42:09.022Z,25.40
2022-12-18T05:44:36.677Z,31.20
2022-12-18T05:47:04.708Z,27.00
2022-12-18T05:49:32.772Z,21.40
2022-12-18T05:52:01.249Z,27.10
2022-12-18T05:54:30.657Z,22.60
2022-12-18T05:57:03.543Z,32.30
2022-12-18T05:59:32.550Z,35.60
2022-12-18T06:02:00.501Z,30.90
2022-12-18T06:04:29.663Z,30.80
2022-12-18T06:06:59.140Z,31.80
2022-12-18T06:09:32.753Z,36.20
2022-12-18T06:12:09.334Z,32.00
2022-12-18T06:17:05.271Z,38.40
2022-12-18T06:19:32.849Z,35.00
2022-12-18T06:22:00.471Z,35.20
2022-12-18T06:24:33.596Z,38.30
2022-12-18T06:27:03.272Z,36.70
2022-12-18T06:29:34.403Z,49.20
2022-12-18T06:32:02.946Z,41.00
2022-12-18T06:34:30.777Z,33.90
2022-12-18T06:37:00.408Z,39.50
2022-12-18T06:39:37.013Z,38.60
2022-12-18T06:42:06.175Z,43.80
2022-12-18T06:44:34.628Z,38.30
2022-12-18T06:47:19.859Z,42.70
2022-12-18T06:49:49.366Z,49.50
2022-12-18T06:52:39.469Z,30.00
2022-12-18T06:55:14.118Z,35.20
2022-12-18T06:57:46.143Z,36.90
2022-12-18T07:00:27.013Z,33.10
2022-12-18T07:02:56.804Z,22.10
2022-12-18T07:05:37.118Z,41.30
2022-12-18T07:08:05.275Z,28.30
2022-12-18T07:10:33.358Z,32.30
2022-12-18T07:13:01.170Z,34.20
2022-12-18T07:15:31.015Z,22.40
2022-12-18T07:18:01.064Z,30.40
2022-12-18T07:20:34.545Z,27.20
2022-12-18T07:23:05.418Z,24.50
2022-12-18T07:25:35.333Z,26.40
2022-12-18T07:28:02.979Z,35.50
2022-12-18T07:30:31.283Z,29.80
2022-12-18T07:32:59.137Z,27.60
2022-12-18T07:35:26.722Z,25.90
2022-12-18T07:37:54.711Z,25.10
2022-12-18T07:40:22.354Z,26.60
2022-12-18T07:42:50.171Z,29.50
2022-12-18T07:45:20.427Z,22.00
2022-12-18T07:47:48.145Z,29.50
2022-12-18T07:50:16.866Z,30.60
2022-12-18T07:52:44.731Z,24.30
2022-12-18T07:55:13.021Z,34.70
2022-12-18T07:57:50.796Z,35.60
2022-12-18T08:00:20.143Z,27.60
2022-12-18T08:02:49.598Z,34.10
2022-12-18T08:05:17.760Z,36.00
2022-12-18T08:07:45.466Z,31.10
2022-12-18T08:10:13.199Z,38.20
2022-12-18T08:12:40.913Z,33.40
2022-12-18T08:15:09.923Z,25.10
2022-12-18T08:17:41.566Z,25.30
2022-12-18T08:20:11.582Z,30.90
2022-12-18T08:22:40.628Z,32.50
2022-12-18T08:25:09.370Z,38.30
2022-12-18T08:27:38.865Z,32.70
2022-12-18T08:30:09.432Z,39.60
2022-12-18T08:32:37.016Z,21.80
2022-12-18T08:35:06.712Z,30.70
2022-12-18T08:37:34.251Z,29.70
2022-12-18T08:40:01.830Z,26.20
2022-12-18T08:42:47.768Z,31.60
2022-12-18T08:45:17.142Z,33.50
2022-12-18T08:47:45.090Z,35.50
2022-12-18T08:50:15.099Z,25.90
2022-12-18T08:52:42.931Z,37.30
2022-12-18T08:55:13.636Z,35.60
2022-12-18T08:57:41.334Z,27.00
2022-12-18T09:00:13.433Z,35.60
2022-12-18T09:02:42.147Z,33.90
2022-12-18T09:05:10.704Z,30.50
2022-12-18T09:07:40.775Z,34.20
2022-12-18T09:10:09.422Z,29.60
2022-12-18T09:12:37.150Z,35.50
2022-12-18T09:15:06.989Z,28.40
2022-12-18T09:17:35.460Z,28.20
2022-12-18T09:20:03.156Z,35.60
2022-12-18T09:22:31.666Z,27.00
2022-12-18T09:25:00.012Z,24.50
2022-12-18T09:27:27.854Z,28.70
2022-12-18T09:29:56.930Z,27.00
2022-12-18T09:32:24.552Z,34.00
2022-12-18T09:34:52.233Z,35.40
2022-12-18T09:37:20.885Z,36.60
2022-12-18T09:39:49.038Z,28.70
2022-12-18T09:42:29.354Z,29.10
2022-12-18T09:44:57.270Z,23.70
2022-12-18T09:47:30.350Z,29.50
2022-12-18T09:50:06.795Z,33.60
2022-12-18T09:52:39.518Z,23.70
2022-12-18T09:55:18.951Z,41.30
2022-12-18T09:57:53.042Z,34.40
2022-12-18T10:00:23.606Z,34.60
2022-12-18T10:02:57.900Z,29.50
2022-12-18T10:05:42.278Z,40.10
2022-12-18T10:08:19.867Z,38.20
2022-12-18T10:10:52.515Z,33.50
2022-12-18T10:13:29.489Z,30.60
2022-12-18T10:16:10.658Z,33.30
2022-12-18T10:18:58.462Z,42.40
2022-12-18T10:21:33.204Z,34.00
2022-12-18T10:24:14.170Z,35.60
2022-12-18T10:26:42.516Z,35.00
2022-12-18T10:29:15.056Z,32.20
2022-12-18T10:31:45.659Z,24.10
2022-12-18T10:34:13.771Z,30.80
2022-12-18T10:36:44.242Z,45.30
2022-12-18T10:39:19.966Z,40.30
2022-12-18T10:41:50.716Z,33.80
2022-12-18T10:44:21.166Z,35.60
2022-12-18T10:46:51.109Z,37.30
2022-12-18T10:49:33.261Z,49.40
2022-12-18T10:52:22.556Z,33.30
2022-12-18T10:54:52.999Z,37.50
2022-12-18T10:57:35.498Z,37.90
2022-12-18T11:00:24.563Z,34.90
2022-12-18T11:02:52.866Z,41.20
2022-12-18T11:05:30.462Z,46.10
2022-12-18T11:08:00.245Z,33.30
2022-12-18T11:10:32.464Z,47.80
2022-12-18T11:13:16.951Z,45.40
2022-12-18T11:15:45.397Z,35.90
2022-12-18T11:18:23.211Z,50.30
2022-12-18T11:20:58.825Z,35.00
2022-12-18T11:23:27.887Z,33.30
2022-12-18T11:25:58.575Z,38.20
2022-12-18T11:28:36.696Z,21.10
2022-12-18T11:31:21.549Z,35.10
2022-12-18T11:34:26.895Z,27.80
2022-12-18T11:36:46.730Z,29.70
2022-12-18T11:39:20.444Z,36.20
2022-12-18T11:42:11.873Z,26.50
2022-12-18T11:44:49.000Z,27.60
2022-12-18T11:49:52.494Z,28.50
2022-12-18T11:52:24.490Z,26.40
2022-12-18T11:54:53.896Z,35.70
2022-12-18T11:57:35.250Z,28.30
2022-12-18T12:00:12.576Z,29.20
2022-12-18T12:03:21.631Z,35.40
2022-12-18T12:06:03.264Z,29.20
2022-12-18T12:08:42.630Z,36.20
2022-12-18T12:11:21.124Z,35.50
2022-12-18T12:14:00.529Z,38.60
2022-12-18T12:16:37.087Z,36.70
2022-12-18T12:19:22.944Z,37.90
2022-12-18T12:21:58.973Z,36.80
2022-12-18T12:24:39.980Z,36.80
2022-12-18T12:27:18.052Z,38.80
2022-12-18T12:29:56.640Z,33.80
2022-12-18T12:32:43.846Z,38.80
2022-12-18T12:35:25.938Z,47.00
2022-12-18T12:38:05.026Z,30.80
2022-12-18T12:40:58.529Z,43.50
2022-12-18T12:43:35.699Z,45.40
2022-12-18T12:46:11.787Z,39.10
2022-12-18T12:48:47.201Z,42.20
2022-12-18T12:51:20.537Z,44.60
2022-12-18T12:53:49.164Z,41.20
2022-12-18T12:56:19.127Z,44.30
2022-12-18T12:59:00.323Z,39.80
2022-12-18T13:01:37.870Z,44.10
2022-12-18T13:04:21.502Z,35.90
2022-12-18T13:06:57.479Z,39.20
2022-12-18T13:09:25.199Z,36.60
2022-12-18T13:12:11.150Z,40.00
2022-12-18T13:14:41.687Z,47.50
2022-12-18T13:17:32.147Z,43.40
2022-12-18T13:20:13.794Z,52.00
2022-12-18T13:22:46.259Z,45.40
2022-12-18T13:25:37.641Z,55.70
2022-12-18T13:28:13.756Z,43.90
2022-12-18T13:30:57.446Z,43.00
2022-12-18T13:36:37.371Z,51.10
2022-12-18T13:39:28.930Z,35.30
2022-12-18T13:42:58.370Z,51.10
2022-12-18T13:45:48.849Z,38.90
2022-12-18T13:48:24.246Z,51.30
2022-12-18T13:50:58.058Z,36.60
2022-12-18T13:53:31.848Z,44.70
2022-12-18T13:55:59.957Z,45.20
2022-12-18T13:58:28.437Z,48.90
2022-12-18T14:00:57.048Z,39.00
2022-12-18T14:03:27.005Z,44.70
2022-12-18T14:05:59.282Z,49.20
2022-12-18T14:08:32.936Z,40.70
2022-12-18T14:11:03.066Z,48.80
2022-12-18T14:13:34.875Z,42.70
2022-12-18T14:16:04.732Z,41.10
2022-12-18T14:18:43.987Z,50.60
2022-12-18T14:21:25.078Z,47.60
2022-12-18T14:24:13.915Z,48.80
2022-12-18T14:26:42.504Z,40.00
2022-12-18T14:29:27.683Z,43.30
2022-12-18T14:32:22.518Z,36.60
2022-12-18T14:34:52.502Z,26.50
2022-12-18T14:37:24.868Z,49.50
2022-12-18T14:40:05.767Z,39.70
2022-12-18T14:42:37.223Z,33.70
2022-12-18T14:45:41.595Z,44.30
2022-12-18T14:48:33.840Z,38.10
2022-12-18T14:51:07.528Z,55.70
2022-12-18T14:53:42.205Z,41.50
2022-12-18T14:56:21.076Z,38.50
2022-12-18T14:58:54.302Z,48.90
2022-12-18T15:01:27.968Z,48.30
2022-12-18T15:04:00.236Z,52.70
2022-12-18T15:06:35.306Z,48.60
2022-12-18T15:09:05.386Z,47.30
2022-12-18T15:11:44.632Z,43.90
2022-12-18T15:14:38.054Z,40.60
2022-12-18T15:17:18.145Z,43.10
2022-12-18T15:19:47.669Z,22.30
2022-12-18T15:22:22.293Z,47.80
2022-12-18T15:24:51.080Z,37.90
2022-12-18T15:27:27.751Z,40.50
2022-12-18T15:30:18.850Z,41.00
2022-12-18T15:32:47.690Z,49.50
2022-12-18T15:35:19.365Z,41.10
2022-12-18T15:37:52.753Z,52.70
2022-12-18T15:40:27.637Z,39.10
2022-12-18T15:43:16.721Z,58.90
2022-12-18T15:45:45.488Z,44.00
2022-12-18T15:48:38.349Z,42.60
2022-12-18T15:54:13.080Z,45.90
2022-12-18T15:57:03.493Z,45.50
2022-12-18T15:59:34.932Z,44.80
2022-12-18T16:02:25.177Z,44.80
2022-12-18T16:05:17.550Z,46.00
2022-12-18T16:07:51.031Z,47.80
2022-12-18T16:10:51.805Z,38.60
2022-12-18T16:13:26.545Z,41.60
2022-12-18T16:16:15.521Z,39.70
2022-12-18T16:19:06.433Z,53.60
2022-12-18T16:21:59.514Z,48.00
2022-12-18T16:24:45.040Z,52.00
2022-12-18T16:27:38.954Z,61.40
2022-12-18T16:30:36.096Z,56.70
2022-12-18T16:33:22.370Z,45.10
2022-12-18T16:36:22.606Z,54.90
2022-12-18T16:39:14.127Z,55.80
2022-12-18T16:42:11.261Z,48.10
2022-12-18T16:44:46.224Z,46.80
2022-12-18T16:47:48.282Z,52.10
2022-12-18T16:50:23.394Z,57.30
2022-12-18T16:53:20.618Z,55.20
2022-12-18T16:56:00.551Z,58.00
2022-12-18T16:58:52.867Z,68.20
2022-12-18T17:01:41.910Z,54.60
2022-12-18T17:04:31.101Z,48.70
2022-12-18T17:07:23.573Z,50.40
2022-12-18T17:10:37.184Z,50.50
2022-12-18T17:13:05.823Z,62.20
2022-12-18T17:16:03.348Z,56.10
2022-12-18T17:18:59.517Z,43.90
2022-12-18T17:22:03.007Z,53.70
2022-12-18T17:24:58.978Z,48.70
2022-12-18T17:27:53.940Z,47.10
2022-12-18T17:30:48.375Z,50.20
2022-12-18T17:33:37.861Z,65.50
2022-12-18T17:36:35.533Z,61.70
2022-12-18T17:39:27.109Z,53.60
2022-12-18T17:42:17.235Z,59.20
2022-12-18T17:45:16.441Z,77.50
2022-12-18T17:47:49.174Z,55.00
2022-12-18T17:51:13.237Z,51.80
2022-12-18T17:54:06.289Z,52.30
2022-12-18T17:56:57.476Z,48.40
2022-12-18T17:59:29.358Z,58.20
2022-12-18T18:02:26.532Z,48.80
2022-12-18T18:05:16.331Z,50.00
2022-12-18T18:08:09.122Z,56.90
2022-12-18T18:11:21.623Z,63.20
2022-12-18T18:14:01.584Z,52.90
2022-12-18T18:16:56.293Z,50.90
2022-12-18T18:19:27.761Z,37.80
2022-12-18T18:22:13.115Z,60.30
2022-12-18T18:24:49.961Z,84.30
2022-12-18T18:27:40.479Z,52.10
2022-12-18T18:30:34.045Z,60.80
2022-12-18T18:33:32.887Z,57.50
2022-12-18T18:36:28.706Z,50.50
2022-12-18T18:39:09.084Z,54.70
2022-12-18T18:42:03.416Z,74.70
2022-12-18T18:44:55.497Z,43.50
2022-12-18T18:47:30.903Z,64.00
2022-12-18T18:50:22.528Z,50.30
2022-12-18T18:53:14.925Z,77.60
2022-12-18T18:59:19.471Z,49.50
2022-12-18T19:02:31.546Z,38.80
2022-12-18T19:05:28.962Z,66.90
2022-12-18T19:08:24.151Z,57.60
2022-12-18T19:10:58.794Z,55.50
2022-12-18T19:19:26.861Z,55.80
2022-12-18T19:22:21.759Z,70.20
2022-12-18T19:25:06.032Z,79.90
2022-12-18T19:28:05.609Z,59.50
2022-12-18T19:31:02.142Z,63.40
2022-12-18T19:33:50.436Z,74.20
2022-12-18T19:36:59.723Z,62.20
2022-12-18T19:39:52.858Z,53.70
2022-12-18T19:42:45.333Z,69.30
2022-12-18T19:45:46.520Z,64.70
2022-12-18T19:48:30.087Z,65.20
2022-12-18T19:51:35.742Z,46.10
2022-12-18T19:54:06.869Z,66.30
2022-12-18T19:57:10.251Z,58.30
2022-12-18T20:00:10.852Z,79.20
2022-12-18T20:03:27.376Z,50.30
2022-12-18T20:06:26.394Z,70.20
2022-12-18T20:09:23.314Z,80.60
2022-12-18T20:12:16.513Z,71.60
2022-12-18T20:15:18.442Z,72.50
2022-12-18T20:18:12.688Z,66.90
2022-12-18T20:21:15.833Z,49.90
2022-12-18T20:24:10.567Z,71.20
2022-12-18T20:27:14.611Z,55.90
2022-12-18T20:30:27.670Z,60.80
2022-12-18T20:33:47.703Z,52.00
2022-12-18T20:36:58.880Z,70.10
2022-12-18T20:40:03.107Z,55.00
2022-12-18T20:42:58.425Z,43.40
2022-12-18T20:45:52.454Z,72.80
2022-12-18T20:48:48.989Z,63.60
2022-12-18T20:51:25.379Z,58.00
2022-12-18T20:54:11.654Z,81.90
2022-12-18T20:56:46.776Z,67.00
2022-12-18T20:59:21.293Z,64.20
2022-12-18T21:02:01.076Z,69.30
2022-12-18T21:05:08.127Z,61.60
2022-12-18T21:08:01.200Z,76.00
2022-12-18T21:10:54.536Z,66.90
2022-12-18T21:13:37.435Z,71.60
2022-12-18T21:16:30.513Z,75.70
2022-12-18T21:19:22.837Z,67.90
2022-12-18T21:22:13.081Z,56.00
2022-12-18T21:25:14.606Z,62.40
2022-12-18T21:28:12.693Z,69.50
2022-12-18T21:31:11.168Z,52.50
2022-12-18T21:33:49.411Z,72.30
2022-12-18T21:36:20.361Z,59.10
2022-12-18T21:39:13.224Z,53.00
2022-12-18T21:42:27.451Z,75.60
2022-12-18T21:44:59.866Z,72.40
2022-12-18T21:47:54.771Z,63.40
2022-12-18T21:50:46.225Z,85.60
2022-12-18T21:53:34.660Z,62.00
2022-12-18T21:56:25.007Z,64.70
2022-12-18T21:59:37.079Z,56.20
2022-12-18T22:02:16.067Z,85.80
2022-12-18T22:05:18.036Z,60.40
2022-12-18T22:08:10.479Z,79.00
2022-12-18T22:11:01.320Z,76.70
2022-12-18T22:13:57.123Z,59.40
2022-12-18T22:16:42.493Z,51.10
2022-12-18T22:19:41.055Z,78.70
2022-12-18T22:22:38.377Z,61.00
2022-12-18T22:25:46.716Z,70.00
2022-12-18T22:29:02.744Z,67.90
2022-12-18T22:31:52.634Z,71.70
2022-12-18T22:34:42.738Z,50.60
2022-12-18T22:37:35.672Z,66.60
2022-12-18T22:40:26.552Z,71.00
2022-12-18T22:43:04.028Z,86.90
2022-12-18T22:45:54.336Z,79.00
2022-12-18T22:48:45.729Z,64.70
2022-12-18T22:51:36.847Z,64.70
2022-12-18T22:54:25.974Z,78.60
2022-12-18T22:57:14.862Z,68.60
2022-12-18T23:00:07.332Z,78.30
2022-12-18T23:03:02.242Z,64.00
2022-12-18T23:05:35.226Z,62.20
2022-12-18T23:08:24.861Z,71.20
2022-12-18T23:11:14.432Z,91.40
2022-12-18T23:14:06.411Z,90.80
2022-12-18T23:17:06.678Z,67.30
2022-12-18T23:19:36.179Z,77.40
2022-12-18T23:22:27.799Z,82.00
2022-12-18T23:24:55.789Z,88.20
2022-12-18T23:27:44.162Z,103.80
2022-12-18T23:30:36.138Z,87.70
2022-12-18T23:33:31.341Z,79.50
2022-12-18T23:36:23.429Z,67.70
2022-12-18T23:39:29.379Z,97.90
2022-12-18T23:42:25.347Z,63.30
2022-12-18T23:45:18.075Z,76.40
2022-12-18T23:48:11.743Z,72.80
2022-12-18T23:51:06.507Z,57.00
2022-12-18T23:53:56.919Z,80.90
2022-12-18T23:56:50.360Z,77.60
2022-12-18T23:59:38.728Z,63.30
